Terminal Aerodrome Forecast
Issued by NWS Denver/Boulder, CO

Home | Current Version | Previous Version | Text Only | Print | Product List | Glossary On
Versions: 1 2 3 4 5 6 7 8 9 10 11 12 13 14 15 16 17 18 19 20 21 22 23 24 25 26 27 28 29 30 31 32 33 34 35 36 37 38 39 40 41 42 43 44 45 46 47 48 49 50
000
FTUS45 KBOU 012320
TAFDEN
TAF
KDEN 012320Z 0200/0306 05007KT P6SM VCSH FEW070 SCT100 BKN150
     FM020300 15010KT P6SM FEW100 SCT150 BKN200
     FM020700 20012KT P6SM FEW150 SCT200
     FM021400 24008KT P6SM FEW120 SCT200
     FM022000 34008KT P6SM SCT080 BKN150
     FM022200 25007KT P6SM VCSH SCT070 BKN110
     FM030300 21007KT P6SM SCT110 BKN200=

USA.gov is the U.S. government's official web portal to all federal, state and local government web resources and services.